sensor_id;sensor_type;location;lat;lon;timestamp;pressure;altitude;pressure_sealevel;temperature;humidity
72423;BME280;60413;55.658;37.498;2022-12-18T01:28:44;98153.94;;;-6.68;100.00
72423;BME280;60413;55.658;37.498;2022-12-18T01:31:18;98269.66;;;-5.94;100.00
72423;BME280;60413;55.658;37.498;2022-12-18T01:33:47;98153.78;;;-6.66;100.00
72423;BME280;60413;55.658;37.498;2022-12-18T01:36:15;98173.22;;;-6.56;100.00
72423;BME280;60413;55.658;37.498;2022-12-18T01:38:42;98147.41;;;-6.62;100.00
72423;BME280;60413;55.658;37.498;2022-12-18T01:41:08;98216.84;;;-6.21;100.00
72423;BME280;60413;55.658;37.498;2022-12-18T01:43:54;98251.72;;;-5.94;100.00
72423;BME280;60413;55.658;37.498;2022-12-18T01:46:25;98253.66;;;-5.96;100.00
72423;BME280;60413;55.658;37.498;2022-12-18T01:48:59;98254.41;;;-5.96;100.00
72423;BME280;60413;55.658;37.498;2022-12-18T01:51:28;98219.25;;;-6.20;100.00
72423;BME280;60413;55.658;37.498;2022-12-18T01:53:59;98225.16;;;-6.19;100.00
72423;BME280;60413;55.658;37.498;2022-12-18T01:56:27;98263.59;;;-5.93;100.00
72423;BME280;60413;55.658;37.498;2022-12-18T01:59:03;98156.56;;;-6.60;100.00
72423;BME280;60413;55.658;37.498;2022-12-18T02:01:33;98249.13;;;-5.94;100.00
72423;BME280;60413;55.658;37.498;2022-12-18T02:04:27;98173.13;;;-6.46;100.00
72423;BME280;60413;55.658;37.498;2022-12-18T02:10:19;98174.91;;;-6.38;100.00
72423;BME280;60413;55.658;37.498;2022-12-18T03:01:30;98242.34;;;-6.20;100.00
72423;BME280;60413;55.658;37.498;2022-12-18T03:04:16;98212.56;;;-6.39;100.00
72423;BME280;60413;55.658;37.498;2022-12-18T03:06:54;98258.81;;;-6.22;100.00
72423;BME280;60413;55.658;37.498;2022-12-18T03:09:29;98175.03;;;-6.74;100.00
72423;BME280;60413;55.658;37.498;2022-12-18T03:13:06;98152.81;;;-6.92;100.00
72423;BME280;60413;55.658;37.498;2022-12-18T03:15:09;98239.75;;;-6.20;100.00
72423;BME280;60413;55.658;37.498;2022-12-18T03:17:46;98142.56;;;-6.92;100.00
72423;BME280;60413;55.658;37.498;2022-12-18T03:20:20;98229.56;;;-6.38;100.00
72423;BME280;60413;55.658;37.498;2022-12-18T03:22:53;98171.16;;;-6.78;100.00
72423;BME280;60413;55.658;37.498;2022-12-18T03:25:28;98169.00;;;-6.91;100.00
72423;BME280;60413;55.658;37.498;2022-12-18T03:28:02;98152.38;;;-6.87;100.00
72423;BME280;60413;55.658;37.498;2022-12-18T03:30:31;98156.25;;;-6.83;100.00
72423;BME280;60413;55.658;37.498;2022-12-18T03:33:08;98174.88;;;-6.73;100.00
72423;BME280;60413;55.658;37.498;2022-12-18T03:35:50;98165.03;;;-6.85;100.00
72423;BME280;60413;55.658;37.498;2022-12-18T03:38:18;98189.47;;;-6.73;100.00
72423;BME280;60413;55.658;37.498;2022-12-18T03:40:56;98237.50;;;-6.23;100.00
72423;BME280;60413;55.658;37.498;2022-12-18T03:46:16;98140.94;;;-7.01;100.00
72423;BME280;60413;55.658;37.498;2022-12-18T03:48:48;98152.03;;;-6.92;100.00
72423;BME280;60413;55.658;37.498;2022-12-18T03:51:37;98240.31;;;-6.34;100.00
72423;BME280;60413;55.658;37.498;2022-12-18T03:54:18;98213.59;;;-6.58;100.00
72423;BME280;60413;55.658;37.498;2022-12-18T03:56:59;98148.25;;;-7.06;100.00
72423;BME280;60413;55.658;37.498;2022-12-18T03:59:29;98173.63;;;-6.95;100.00
72423;BME280;60413;55.658;37.498;2022-12-18T04:02:00;98189.75;;;-6.76;100.00
72423;BME280;60413;55.658;37.498;2022-12-18T04:04:28;98149.97;;;-6.89;100.00
72423;BME280;60413;55.658;37.498;2022-12-18T04:06:58;98124.91;;;-7.03;100.00
72423;BME280;60413;55.658;37.498;2022-12-18T04:09:32;98151.03;;;-6.99;100.00
72423;BME280;60413;55.658;37.498;2022-12-18T04:12:00;98218.31;;;-6.71;100.00
72423;BME280;60413;55.658;37.498;2022-12-18T04:14:26;98201.50;;;-6.92;100.00
72423;BME280;60413;55.658;37.498;2022-12-18T04:16:58;98185.63;;;-6.95;100.00
72423;BME280;60413;55.658;37.498;2022-12-18T04:19:29;98177.44;;;-6.99;100.00
72423;BME280;60413;55.658;37.498;2022-12-18T04:21:56;98194.47;;;-6.90;100.00
72423;BME280;60413;55.658;37.498;2022-12-18T04:24:25;98242.31;;;-6.72;100.00
72423;BME280;60413;55.658;37.498;2022-12-18T04:27:10;98204.44;;;-7.04;100.00
72423;BME280;60413;55.658;37.498;2022-12-18T04:29:43;98178.94;;;-7.14;100.00
72423;BME280;60413;55.658;37.498;2022-12-18T04:32:15;98214.91;;;-7.16;100.00
72423;BME280;60413;55.658;37.498;2022-12-18T04:34:44;98218.88;;;-7.21;100.00
72423;BME280;60413;55.658;37.498;2022-12-18T04:37:10;98228.72;;;-7.09;100.00
72423;BME280;60413;55.658;37.498;2022-12-18T04:39:38;98261.66;;;-6.96;100.00
72423;BME280;60413;55.658;37.498;2022-12-18T04:42:10;98208.06;;;-7.33;100.00
72423;BME280;60413;55.658;37.498;2022-12-18T04:44:38;98241.78;;;-7.20;100.00
72423;BME280;60413;55.658;37.498;2022-12-18T04:47:05;98242.66;;;-7.29;100.00
72423;BME280;60413;55.658;37.498;2022-12-18T04:49:31;98340.41;;;-6.62;100.00
72423;BME280;60413;55.658;37.498;2022-12-18T04:51:57;98240.88;;;-7.29;100.00
72423;BME280;60413;55.658;37.498;2022-12-18T04:54:23;98357.13;;;-6.58;100.00
72423;BME280;60413;55.658;37.498;2022-12-18T04:56:49;98237.81;;;-7.14;100.00
72423;BME280;60413;55.658;37.498;2022-12-18T04:59:15;98257.78;;;-7.18;100.00
72423;BME280;60413;55.658;37.498;2022-12-18T05:01:45;98223.47;;;-7.43;100.00
72423;BME280;60413;55.658;37.498;2022-12-18T05:04:20;98236.81;;;-7.21;100.00
72423;BME280;60413;55.658;37.498;2022-12-18T05:06:46;98299.94;;;-6.94;100.00
72423;BME280;60413;55.658;37.498;2022-12-18T05:09:12;98279.16;;;-7.09;100.00
72423;BME280;60413;55.658;37.498;2022-12-18T05:11:38;98319.31;;;-6.92;100.00
72423;BME280;60413;55.658;37.498;2022-12-18T05:14:04;98262.84;;;-7.26;100.00
72423;BME280;60413;55.658;37.498;2022-12-18T05:16:34;98296.03;;;-6.98;100.00
72423;BME280;60413;55.658;37.498;2022-12-18T05:19:02;98315.31;;;-6.94;100.00
72423;BME280;60413;55.658;37.498;2022-12-18T05:21:31;98291.69;;;-6.88;100.00
72423;BME280;60413;55.658;37.498;2022-12-18T05:23:59;98267.44;;;-7.30;100.00
72423;BME280;60413;55.658;37.498;2022-12-18T05:26:26;98378.56;;;-6.59;100.00
72423;BME280;60413;55.658;37.498;2022-12-18T05:29:00;98293.00;;;-7.20;100.00
72423;BME280;60413;55.658;37.498;2022-12-18T05:31:30;98273.88;;;-7.26;100.00
72423;BME280;60413;55.658;37.498;2022-12-18T05:33:57;98310.69;;;-7.27;100.00
72423;BME280;60413;55.658;37.498;2022-12-18T05:36:26;98278.41;;;-7.37;100.00
72423;BME280;60413;55.658;37.498;2022-12-18T05:38:55;98353.44;;;-6.91;100.00
72423;BME280;60413;55.658;37.498;2022-12-18T05:41:24;98414.38;;;-6.67;100.00
72423;BME280;60413;55.658;37.498;2022-12-18T05:43:50;98317.63;;;-7.19;100.00
72423;BME280;60413;55.658;37.498;2022-12-18T05:46:17;98363.19;;;-6.95;100.00
72423;BME280;60413;55.658;37.498;2022-12-18T05:48:44;98325.50;;;-7.30;100.00
72423;BME280;60413;55.658;37.498;2022-12-18T05:51:13;98350.13;;;-7.19;100.00
72423;BME280;60413;55.658;37.498;2022-12-18T05:53:45;98418.56;;;-6.66;100.00
72423;BME280;60413;55.658;37.498;2022-12-18T05:56:14;98353.94;;;-7.05;100.00
72423;BME280;60413;55.658;37.498;2022-12-18T05:58:41;98375.31;;;-7.15;100.00
72423;BME280;60413;55.658;37.498;2022-12-18T06:01:09;98425.78;;;-6.79;100.00
72423;BME280;60413;55.658;37.498;2022-12-18T06:03:36;98305.16;;;-7.50;100.00
72423;BME280;60413;55.658;37.498;2022-12-18T06:06:02;98436.88;;;-6.89;100.00
72423;BME280;60413;55.658;37.498;2022-12-18T06:08:35;98402.59;;;-7.05;100.00
72423;BME280;60413;55.658;37.498;2022-12-18T06:11:01;98332.34;;;-7.49;100.00
72423;BME280;60413;55.658;37.498;2022-12-18T06:13:30;98397.56;;;-7.25;100.00
72423;BME280;60413;55.658;37.498;2022-12-18T06:16:17;98347.97;;;-7.52;100.00
72423;BME280;60413;55.658;37.498;2022-12-18T06:18:44;98425.38;;;-7.02;100.00
72423;BME280;60413;55.658;37.498;2022-12-18T06:21:14;98413.22;;;-7.28;100.00
72423;BME280;60413;55.658;37.498;2022-12-18T06:23:40;98347.03;;;-7.51;100.00
72423;BME280;60413;55.658;37.498;2022-12-18T06:26:11;98355.13;;;-7.55;100.00
72423;BME280;60413;55.658;37.498;2022-12-18T06:28:37;98413.16;;;-7.18;100.00
72423;BME280;60413;55.658;37.498;2022-12-18T06:31:04;98432.44;;;-7.14;100.00
72423;BME280;60413;55.658;37.498;2022-12-18T06:33:34;98412.66;;;-7.22;100.00
72423;BME280;60413;55.658;37.498;2022-12-18T06:36:04;98475.75;;;-6.93;100.00
72423;BME280;60413;55.658;37.498;2022-12-18T06:38:32;98460.94;;;-6.99;100.00
72423;BME280;60413;55.658;37.498;2022-12-18T06:40:58;98451.78;;;-7.02;100.00
72423;BME280;60413;55.658;37.498;2022-12-18T06:43:35;98428.16;;;-7.23;100.00
72423;BME280;60413;55.658;37.498;2022-12-18T06:46:14;98440.34;;;-7.08;100.00
72423;BME280;60413;55.658;37.498;2022-12-18T06:48:48;98481.53;;;-6.91;100.00
72423;BME280;60413;55.658;37.498;2022-12-18T06:51:19;98466.75;;;-7.07;100.00
72423;BME280;60413;55.658;37.498;2022-12-18T06:53:48;98481.19;;;-7.06;100.00
72423;BME280;60413;55.658;37.498;2022-12-18T06:56:21;98500.50;;;-6.84;100.00
72423;BME280;60413;55.658;37.498;2022-12-18T06:58:55;98432.47;;;-7.24;100.00
72423;BME280;60413;55.658;37.498;2022-12-18T07:01:21;98493.09;;;-6.87;100.00
72423;BME280;60413;55.658;37.498;2022-12-18T07:03:57;98412.69;;;-7.32;100.00
72423;BME280;60413;55.658;37.498;2022-12-18T07:06:27;98496.00;;;-6.72;100.00
72423;BME280;60413;55.658;37.498;2022-12-18T07:08:55;98442.16;;;-7.18;100.00
72423;BME280;60413;55.658;37.498;2022-12-18T07:11:24;98571.28;;;-6.45;100.00
72423;BME280;60413;55.658;37.498;2022-12-18T07:17:04;98506.75;;;-6.86;100.00
72423;BME280;60413;55.658;37.498;2022-12-18T07:19:38;98528.47;;;-6.63;100.00
72423;BME280;60413;55.658;37.498;2022-12-18T07:22:04;98494.34;;;-6.91;100.00
72423;BME280;60413;55.658;37.498;2022-12-18T07:24:42;98482.38;;;-7.00;100.00
72423;BME280;60413;55.658;37.498;2022-12-18T07:27:08;98508.50;;;-6.97;100.00
72423;BME280;60413;55.658;37.498;2022-12-18T07:29:37;98534.72;;;-6.75;100.00
72423;BME280;60413;55.658;37.498;2022-12-18T07:32:04;98540.59;;;-6.65;100.00
72423;BME280;60413;55.658;37.498;2022-12-18T07:34:30;98499.34;;;-6.90;100.00
72423;BME280;60413;55.658;37.498;2022-12-18T07:36:56;98491.53;;;-6.98;100.00
72423;BME280;60413;55.658;37.498;2022-12-18T07:39:25;98588.75;;;-6.59;100.00
72423;BME280;60413;55.658;37.498;2022-12-18T07:41:51;98527.78;;;-6.93;100.00
72423;BME280;60413;55.658;37.498;2022-12-18T07:44:39;98509.22;;;-7.04;100.00
72423;BME280;60413;55.658;37.498;2022-12-18T07:47:08;98575.97;;;-6.68;100.00
72423;BME280;60413;55.658;37.498;2022-12-18T07:49:34;98515.28;;;-7.05;100.00
72423;BME280;60413;55.658;37.498;2022-12-18T07:52:06;98497.09;;;-7.02;100.00
72423;BME280;60413;55.658;37.498;2022-12-18T07:54:40;98490.78;;;-7.08;100.00
72423;BME280;60413;55.658;37.498;2022-12-18T07:57:07;98527.25;;;-6.86;100.00
72423;BME280;60413;55.658;37.498;2022-12-18T07:59:34;98539.34;;;-6.89;100.00
72423;BME280;60413;55.658;37.498;2022-12-18T08:02:00;98528.34;;;-6.99;100.00
72423;BME280;60413;55.658;37.498;2022-12-18T08:04:27;98583.09;;;-6.62;100.00
72423;BME280;60413;55.658;37.498;2022-12-18T08:06:57;98524.56;;;-6.95;100.00
72423;BME280;60413;55.658;37.498;2022-12-18T08:09:24;98624.94;;;-6.34;100.00
72423;BME280;60413;55.658;37.498;2022-12-18T08:11:51;98574.38;;;-6.69;100.00
72423;BME280;60413;55.658;37.498;2022-12-18T08:14:18;98611.44;;;-6.64;100.00
72423;BME280;60413;55.658;37.498;2022-12-18T08:16:52;98569.84;;;-6.95;100.00
72423;BME280;60413;55.658;37.498;2022-12-18T08:19:18;98611.03;;;-6.69;100.00
72423;BME280;60413;55.658;37.498;2022-12-18T08:22:14;98576.06;;;-6.88;100.00
72423;BME280;60413;55.658;37.498;2022-12-18T08:24:52;98567.00;;;-6.82;100.00
72423;BME280;60413;55.658;37.498;2022-12-18T08:27:42;98668.00;;;-6.10;100.00
72423;BME280;60413;55.658;37.498;2022-12-18T08:30:19;98572.38;;;-6.85;100.00
72423;BME280;60413;55.658;37.498;2022-12-18T08:32:53;98565.94;;;-6.90;100.00
72423;BME280;60413;55.658;37.498;2022-12-18T08:35:24;98588.41;;;-6.83;100.00
72423;BME280;60413;55.658;37.498;2022-12-18T08:37:56;98611.94;;;-6.60;100.00
72423;BME280;60413;55.658;37.498;2022-12-18T08:40:24;98680.03;;;-6.10;100.00
72423;BME280;60413;55.658;37.498;2022-12-18T08:42:56;98650.88;;;-6.47;100.00
72423;BME280;60413;55.658;37.498;2022-12-18T08:45:47;98629.44;;;-6.46;100.00
72423;BME280;60413;55.658;37.498;2022-12-18T08:48:13;98580.59;;;-6.82;100.00
72423;BME280;60413;55.658;37.498;2022-12-18T08:50:58;98585.69;;;-6.72;100.00
72423;BME280;60413;55.658;37.498;2022-12-18T08:53:33;98694.97;;;-5.96;100.00
72423;BME280;60413;55.658;37.498;2022-12-18T08:56:12;98595.16;;;-6.73;100.00
72423;BME280;60413;55.658;37.498;2022-12-18T09:01:26;98627.34;;;-6.32;100.00
72423;BME280;60413;55.658;37.498;2022-12-18T09:03:56;98663.75;;;-6.19;100.00
72423;BME280;60413;55.658;37.498;2022-12-18T09:06:54;98682.47;;;-5.91;100.00
72423;BME280;60413;55.658;37.498;2022-12-18T09:09:22;98564.91;;;-6.69;100.00
72423;BME280;60413;55.658;37.498;2022-12-18T09:11:51;98619.44;;;-6.39;100.00
72423;BME280;60413;55.658;37.498;2022-12-18T09:14:24;98681.50;;;-5.90;100.00
72423;BME280;60413;55.658;37.498;2022-12-18T09:16:55;98626.47;;;-6.41;100.00
72423;BME280;60413;55.658;37.498;2022-12-18T09:19:22;98700.16;;;-5.88;100.00
72423;BME280;60413;55.658;37.498;2022-12-18T09:21:50;98613.16;;;-6.55;100.00
72423;BME280;60413;55.658;37.498;2022-12-18T09:24:27;98674.44;;;-6.24;100.00
72423;BME280;60413;55.658;37.498;2022-12-18T09:30:17;98669.69;;;-6.19;100.00
72423;BME280;60413;55.658;37.498;2022-12-18T09:32:46;98711.13;;;-5.96;100.00
72423;BME280;60413;55.658;37.498;2022-12-18T09:35:20;98654.22;;;-6.37;100.00
72423;BME280;60413;55.658;37.498;2022-12-18T09:37:47;98655.94;;;-6.27;100.00
72423;BME280;60413;55.658;37.498;2022-12-18T09:40:26;98694.72;;;-6.03;100.00
72423;BME280;60413;55.658;37.498;2022-12-18T09:46:36;98696.47;;;-6.03;100.00
72423;BME280;60413;55.658;37.498;2022-12-18T09:49:47;98742.13;;;-5.79;100.00
72423;BME280;60413;55.658;37.498;2022-12-18T09:52:48;98705.31;;;-5.88;100.00
72423;BME280;60413;55.658;37.498;2022-12-18T09:55:30;98673.13;;;-6.10;100.00
72423;BME280;60413;55.658;37.498;2022-12-18T09:58:05;98662.22;;;-6.12;100.00
72423;BME280;60413;55.658;37.498;2022-12-18T10:00:32;98664.00;;;-6.12;100.00
72423;BME280;60413;55.658;37.498;2022-12-18T10:03:13;98718.13;;;-5.88;100.00
72423;BME280;60413;55.658;37.498;2022-12-18T10:08:45;98775.56;;;-5.61;100.00
72423;BME280;60413;55.658;37.498;2022-12-18T10:14:54;98787.09;;;-5.47;100.00
72423;BME280;60413;55.658;37.498;2022-12-18T10:23:20;98789.53;;;-5.46;100.00
72423;BME280;60413;55.658;37.498;2022-12-18T10:26:08;98725.97;;;-5.89;100.00
72423;BME280;60413;55.658;37.498;2022-12-18T10:28:40;98794.13;;;-5.49;100.00
72423;BME280;60413;55.658;37.498;2022-12-18T10:31:24;98688.19;;;-6.25;100.00
72423;BME280;60413;55.658;37.498;2022-12-18T10:34:00;98672.72;;;-6.33;100.00
72423;BME280;60413;55.658;37.498;2022-12-18T10:37:00;98684.03;;;-6.26;100.00
72423;BME280;60413;55.658;37.498;2022-12-18T10:42:31;98740.78;;;-6.01;100.00
72423;BME280;60413;55.658;37.498;2022-12-18T10:48:58;98771.63;;;-5.93;100.00
72423;BME280;60413;55.658;37.498;2022-12-18T10:51:44;98711.22;;;-6.43;100.00
72423;BME280;60413;55.658;37.498;2022-12-18T10:54:29;98770.13;;;-6.23;100.00
72423;BME280;60413;55.658;37.498;2022-12-18T10:57:35;98772.88;;;-6.35;100.00
72423;BME280;60413;55.658;37.498;2022-12-18T11:00:21;98860.72;;;-5.75;100.00
72423;BME280;60413;55.658;37.498;2022-12-18T11:02:55;98857.22;;;-5.84;100.00
72423;BME280;60413;55.658;37.498;2022-12-18T11:12:08;98767.50;;;-6.51;100.00
72423;BME280;60413;55.658;37.498;2022-12-18T11:14:54;98824.94;;;-6.15;100.00
72423;BME280;60413;55.658;37.498;2022-12-18T11:17:49;98792.25;;;-6.22;100.00
72423;BME280;60413;55.658;37.498;2022-12-18T11:20:33;98851.03;;;-5.91;100.00
72423;BME280;60413;55.658;37.498;2022-12-18T11:23:13;98768.03;;;-6.47;100.00
72423;BME280;60413;55.658;37.498;2022-12-18T11:25:57;98765.31;;;-6.46;100.00
72423;BME280;60413;55.658;37.498;2022-12-18T11:34:31;98780.44;;;-6.62;100.00
72423;BME280;60413;55.658;37.498;2022-12-18T11:37:08;98783.56;;;-6.59;100.00
72423;BME280;60413;55.658;37.498;2022-12-18T11:39:40;98875.13;;;-6.02;100.00
72423;BME280;60413;55.658;37.498;2022-12-18T11:47:55;98789.91;;;-6.63;100.00
72423;BME280;60413;55.658;37.498;2022-12-18T11:50:30;98799.06;;;-6.50;100.00
72423;BME280;60413;55.658;37.498;2022-12-18T11:53:15;98816.75;;;-6.57;100.00
72423;BME280;60413;55.658;37.498;2022-12-18T11:55:54;98923.56;;;-5.89;100.00
72423;BME280;60413;55.658;37.498;2022-12-18T12:01:18;98942.50;;;-6.00;100.00
72423;BME280;60413;55.658;37.498;2022-12-18T12:09:25;98911.19;;;-6.23;100.00
72423;BME280;60413;55.658;37.498;2022-12-18T12:18:36;98967.91;;;-5.97;100.00
72423;BME280;60413;55.658;37.498;2022-12-18T12:26:37;98906.59;;;-6.59;100.00
72423;BME280;60413;55.658;37.498;2022-12-18T12:32:23;98998.53;;;-5.96;100.00
72423;BME280;60413;55.658;37.498;2022-12-18T12:40:12;99006.66;;;-6.00;100.00
72423;BME280;60413;55.658;37.498;2022-12-18T12:43:16;98953.97;;;-6.43;100.00
72423;BME280;60413;55.658;37.498;2022-12-18T12:46:00;98973.41;;;-6.41;100.00
72423;BME280;60413;55.658;37.498;2022-12-18T12:49:02;98921.66;;;-6.75;100.00
72423;BME280;60413;55.658;37.498;2022-12-18T12:51:40;99010.16;;;-6.21;100.00
72423;BME280;60413;55.658;37.498;2022-12-18T12:54:25;98924.13;;;-6.64;100.00
72423;BME280;60413;55.658;37.498;2022-12-18T13:03:43;99003.09;;;-6.38;100.00
72423;BME280;60413;55.658;37.498;2022-12-18T13:08:59;98971.47;;;-6.58;100.00
72423;BME280;60413;55.658;37.498;2022-12-18T13:11:36;99067.03;;;-5.96;100.00
72423;BME280;60413;55.658;37.498;2022-12-18T13:14:33;99067.03;;;-6.06;100.00
72423;BME280;60413;55.658;37.498;2022-12-18T13:17:24;99081.97;;;-5.91;100.00
72423;BME280;60413;55.658;37.498;2022-12-18T13:23:32;99002.81;;;-6.55;100.00
72423;BME280;60413;55.658;37.498;2022-12-18T13:34:28;99110.91;;;-5.89;100.00
72423;BME280;60413;55.658;37.498;2022-12-18T13:46:23;99137.69;;;-5.72;100.00
72423;BME280;60413;55.658;37.498;2022-12-18T13:51:55;99033.09;;;-6.29;100.00
72423;BME280;60413;55.658;37.498;2022-12-18T13:54:39;99044.97;;;-6.18;100.00
72423;BME280;60413;55.658;37.498;2022-12-18T13:57:37;99127.03;;;-5.68;100.00
72423;BME280;60413;55.658;37.498;2022-12-18T14:02:54;99099.81;;;-5.90;100.00
72423;BME280;60413;55.658;37.498;2022-12-18T14:05:25;99072.91;;;-6.25;100.00
72423;BME280;60413;55.658;37.498;2022-12-18T14:07:54;99124.81;;;-6.02;100.00
72423;BME280;60413;55.658;37.498;2022-12-18T14:10:28;99181.19;;;-5.71;100.00
72423;BME280;60413;55.658;37.498;2022-12-18T14:13:37;99101.63;;;-6.41;100.00
72423;BME280;60413;55.658;37.498;2022-12-18T14:16:18;99210.06;;;-5.79;100.00
72423;BME280;60413;55.658;37.498;2022-12-18T14:19:08;99162.63;;;-6.04;100.00
72423;BME280;60413;55.658;37.498;2022-12-18T14:21:55;99225.56;;;-5.90;100.00
72423;BME280;60413;55.658;37.498;2022-12-18T14:24:35;99115.09;;;-6.48;100.00
72423;BME280;60413;55.658;37.498;2022-12-18T14:27:25;99182.69;;;-6.19;100.00
72423;BME280;60413;55.658;37.498;2022-12-18T14:29:56;99212.19;;;-6.03;100.00
72423;BME280;60413;55.658;37.498;2022-12-18T14:32:43;99171.41;;;-6.37;100.00
72423;BME280;60413;55.658;37.498;2022-12-18T14:35:15;99206.59;;;-6.18;100.00
72423;BME280;60413;55.658;37.498;2022-12-18T14:41:03;99175.00;;;-6.49;100.00
72423;BME280;60413;55.658;37.498;2022-12-18T14:43:42;99144.44;;;-6.62;100.00
72423;BME280;60413;55.658;37.498;2022-12-18T14:46:35;99248.00;;;-5.92;100.00
72423;BME280;60413;55.658;37.498;2022-12-18T14:49:30;99264.78;;;-5.88;100.00
72423;BME280;60413;55.658;37.498;2022-12-18T14:52:06;99164.69;;;-6.59;100.00
72423;BME280;60413;55.658;37.498;2022-12-18T14:54:39;99186.00;;;-6.59;100.00
72423;BME280;60413;55.658;37.498;2022-12-18T14:57:30;99134.38;;;-6.75;100.00
72423;BME280;60413;55.658;37.498;2022-12-18T15:00:18;99243.91;;;-6.35;100.00
72423;BME280;60413;55.658;37.498;2022-12-18T15:02:52;99260.00;;;-6.33;100.00
72423;BME280;60413;55.658;37.498;2022-12-18T15:05:28;99188.00;;;-6.83;100.00
72423;BME280;60413;55.658;37.498;2022-12-18T15:08:37;99257.28;;;-6.31;100.00
72423;BME280;60413;55.658;37.498;2022-12-18T15:12:02;99286.59;;;-6.03;100.00
72423;BME280;60413;55.658;37.498;2022-12-18T15:14:45;99250.91;;;-6.37;100.00
72423;BME280;60413;55.658;37.498;2022-12-18T15:17:36;99205.53;;;-6.67;100.00
72423;BME280;60413;55.658;37.498;2022-12-18T15:20:09;99201.41;;;-6.80;100.00
72423;BME280;60413;55.658;37.498;2022-12-18T15:22:56;99297.69;;;-6.24;100.00
72423;BME280;60413;55.658;37.498;2022-12-18T15:25:36;99299.19;;;-6.42;100.00
72423;BME280;60413;55.658;37.498;2022-12-18T15:28:29;99317.41;;;-6.24;100.00
72423;BME280;60413;55.658;37.498;2022-12-18T15:36:41;99211.03;;;-6.93;100.00
72423;BME280;60413;55.658;37.498;2022-12-18T15:39:13;99233.13;;;-6.92;100.00
72423;BME280;60413;55.658;37.498;2022-12-18T15:41:44;99247.34;;;-6.88;100.00
72423;BME280;60413;55.658;37.498;2022-12-18T15:44:31;99289.50;;;-6.60;100.00
72423;BME280;60413;55.658;37.498;2022-12-18T15:47:16;99259.03;;;-6.74;100.00
72423;BME280;60413;55.658;37.498;2022-12-18T15:49:45;99267.09;;;-6.79;100.00
72423;BME280;60413;55.658;37.498;2022-12-18T15:52:13;99261.41;;;-6.82;100.00
72423;BME280;60413;55.658;37.498;2022-12-18T15:54:42;99247.16;;;-6.96;100.00
72423;BME280;60413;55.658;37.498;2022-12-18T15:57:30;99284.88;;;-6.66;100.00
72423;BME280;60413;55.658;37.498;2022-12-18T16:00:05;99308.81;;;-6.56;100.00
72423;BME280;60413;55.658;37.498;2022-12-18T16:02:33;99335.97;;;-6.53;100.00
72423;BME280;60413;55.658;37.498;2022-12-18T16:05:15;99264.63;;;-7.01;100.00
72423;BME280;60413;55.658;37.498;2022-12-18T16:08:09;99266.88;;;-7.08;100.00
72423;BME280;60413;55.658;37.498;2022-12-18T16:10:41;99340.19;;;-6.63;100.00
72423;BME280;60413;55.658;37.498;2022-12-18T16:13:15;99313.25;;;-6.90;100.00
72423;BME280;60413;55.658;37.498;2022-12-18T16:16:08;99319.94;;;-6.99;100.00
72423;BME280;60413;55.658;37.498;2022-12-18T16:18:51;99298.00;;;-7.35;100.00
72423;BME280;60413;55.658;37.498;2022-12-18T16:21:19;99326.28;;;-7.26;100.00
72423;BME280;60413;55.658;37.498;2022-12-18T16:23:53;99318.03;;;-7.40;100.00
72423;BME280;60413;55.658;37.498;2022-12-18T16:26:26;99340.94;;;-7.16;100.00
72423;BME280;60413;55.658;37.498;2022-12-18T16:28:55;99314.78;;;-7.54;100.00
72423;BME280;60413;55.658;37.498;2022-12-18T16:31:40;99327.22;;;-7.72;100.00
72423;BME280;60413;55.658;37.498;2022-12-18T16:34:34;99423.00;;;-7.18;100.00
72423;BME280;60413;55.658;37.498;2022-12-18T16:46:55;99406.44;;;-7.70;100.00
72423;BME280;60413;55.658;37.498;2022-12-18T16:49:36;99401.06;;;-7.90;100.00
72423;BME280;60413;55.658;37.498;2022-12-18T16:52:30;99443.78;;;-7.68;100.00
72423;BME280;60413;55.658;37.498;2022-12-18T16:55:37;99353.38;;;-8.49;100.00
72423;BME280;60413;55.658;37.498;2022-12-18T16:58:57;99364.06;;;-8.44;100.00
72423;BME280;60413;55.658;37.498;2022-12-18T17:01:33;99366.22;;;-8.62;100.00
72423;BME280;60413;55.658;37.498;2022-12-18T17:07:37;99376.22;;;-8.83;100.00
72423;BME280;60413;55.658;37.498;2022-12-18T17:10:09;99467.59;;;-8.14;100.00
72423;BME280;60413;55.658;37.498;2022-12-18T17:12:54;99418.16;;;-8.61;100.00
72423;BME280;60413;55.658;37.498;2022-12-18T17:15:45;99512.38;;;-8.32;100.00
72423;BME280;60413;55.658;37.498;2022-12-18T17:18:18;99462.09;;;-8.69;100.00
72423;BME280;60413;55.658;37.498;2022-12-18T17:21:05;99475.94;;;-8.71;100.00
72423;BME280;60413;55.658;37.498;2022-12-18T17:23:35;99501.13;;;-8.54;100.00
72423;BME280;60413;55.658;37.498;2022-12-18T17:26:07;99431.63;;;-8.96;100.00
72423;BME280;60413;55.658;37.498;2022-12-18T17:28:37;99463.78;;;-8.81;100.00
72423;BME280;60413;55.658;37.498;2022-12-18T17:31:11;99502.97;;;-8.56;100.00
72423;BME280;60413;55.658;37.498;2022-12-18T17:33:40;99484.50;;;-8.72;100.00
72423;BME280;60413;55.658;37.498;2022-12-18T17:36:12;99449.91;;;-9.02;100.00
72423;BME280;60413;55.658;37.498;2022-12-18T17:38:48;99417.38;;;-9.37;100.00
72423;BME280;60413;55.658;37.498;2022-12-18T17:41:18;99437.28;;;-9.17;100.00
72423;BME280;60413;55.658;37.498;2022-12-18T17:44:09;99451.06;;;-9.06;100.00
72423;BME280;60413;55.658;37.498;2022-12-18T17:46:43;99498.91;;;-8.71;100.00
72423;BME280;60413;55.658;37.498;2022-12-18T17:49:16;99440.25;;;-9.23;100.00
72423;BME280;60413;55.658;37.498;2022-12-18T17:51:46;99547.31;;;-8.57;100.00
72423;BME280;60413;55.658;37.498;2022-12-18T17:54:25;99444.34;;;-9.33;100.00
72423;BME280;60413;55.658;37.498;2022-12-18T17:57:12;99539.34;;;-8.65;100.00
72423;BME280;60413;55.658;37.498;2022-12-18T17:59:51;99437.00;;;-9.38;100.00
72423;BME280;60413;55.658;37.498;2022-12-18T18:03:17;99482.91;;;-9.12;100.00
72423;BME280;60413;55.658;37.498;2022-12-18T18:06:09;99473.97;;;-9.43;100.00